Time;durP1;ratioP1;P1;durP2;ratioP2;P2;SDS_P1;SDS_P2;PMS_P1;PMS_P2;Temp;Humidity;BMP_temperature;BMP_pressure;BME280_temperature;BME280_humidity;BME280_pressure;Samples;Min_cycle;Max_cycle;Signal;HPM_P1;HPM_P2
2022/02/04 00:20:36;;;;;;;8.93;4.20;;;6.60;99.90;;;;;;4989303;28;20080;-67
2022/02/04 00:23:08;;;;;;;13.30;5.00;;;6.60;99.90;;;;;;4989016;28;20029;-67
2022/02/04 00:28:05;;;;;;;13.82;4.68;;;6.50;99.90;;;;;;4989223;28;20034;-67
2022/02/04 00:30:37;;;;;;;10.07;3.72;;;6.60;99.90;;;;;;4987009;28;20042;-67
2022/02/04 00:33:04;;;;;;;7.22;3.83;;;6.60;99.90;;;;;;4993232;28;20030;-67
2022/02/04 00:38:07;;;;;;;10.38;3.80;;;6.60;99.90;;;;;;4989604;28;20160;-67
2022/02/04 00:40:40;;;;;;;7.10;2.75;;;6.70;99.90;;;;;;4981565;28;20026;-67
2022/02/04 00:43:10;;;;;;;5.20;2.67;;;6.60;99.90;;;;;;4981405;28;20421;-67
2022/02/04 00:54:20;;;;;;;8.57;3.50;;;6.70;99.90;;;;;;4988604;28;20058;-67
2022/02/04 01:28:23;;;;;;;3.95;2.75;;;6.70;99.90;;;;;;4993829;28;20030;-67
2022/02/04 01:30:48;;;;;;;8.27;3.90;;;6.70;99.90;;;;;;5003410;28;20033;-67
2022/02/04 01:33:14;;;;;;;12.82;5.43;;;6.70;99.90;;;;;;4991262;28;20390;-67
2022/02/04 01:35:40;;;;;;;8.13;3.83;;;6.70;99.90;;;;;;4992563;28;20023;-67
2022/02/04 01:38:06;;;;;;;13.77;5.60;;;6.80;99.90;;;;;;4994493;28;20054;-67
2022/02/04 01:40:32;;;;;;;10.18;3.78;;;6.70;99.90;;;;;;4983950;28;20034;-67
2022/02/04 01:42:57;;;;;;;6.53;2.72;;;6.80;99.90;;;;;;4986663;28;20060;-67
2022/02/04 01:45:23;;;;;;;11.50;3.67;;;6.80;99.90;;;;;;4988076;28;20022;-67
2022/02/04 01:47:55;;;;;;;13.43;4.57;;;6.80;99.90;;;;;;4987973;28;20022;-67
2022/02/04 01:50:24;;;;;;;15.63;5.45;;;6.80;99.90;;;;;;4987468;28;20038;-67
2022/02/04 01:52:50;;;;;;;6.45;3.17;;;6.80;99.90;;;;;;4991548;28;20401;-67
2022/02/04 01:55:17;;;;;;;4.15;2.58;;;6.80;99.90;;;;;;4988331;28;20031;-67
2022/02/04 01:57:43;;;;;;;7.88;2.53;;;6.80;99.90;;;;;;4985726;28;20066;-67
2022/02/04 02:00:09;;;;;;;13.48;4.40;;;6.80;99.90;;;;;;4990492;28;20085;-67
2022/02/04 02:02:35;;;;;;;10.77;3.88;;;6.90;99.90;;;;;;4985604;28;20418;-67
2022/02/04 02:05:01;;;;;;;15.55;4.70;;;6.80;99.90;;;;;;4988127;28;20073;-67
2022/02/04 02:07:29;;;;;;;5.40;2.47;;;6.80;99.90;;;;;;4985238;28;20410;-67
2022/02/04 02:10:03;;;;;;;9.25;4.35;;;6.90;99.90;;;;;;4984194;28;20109;-67
2022/02/04 02:12:35;;;;;;;9.18;3.90;;;6.80;99.90;;;;;;4985623;28;20058;-67
2022/02/04 02:15:25;;;;;;;10.32;3.50;;;6.80;99.90;;;;;;4989798;28;20049;-67
2022/02/04 02:42:19;;;;;;;14.00;5.00;;;6.90;99.90;;;;;;4985977;28;20461;-67
2022/02/04 02:44:58;;;;;;;11.40;3.75;;;6.80;99.90;;;;;;4984715;28;20018;-67
2022/02/04 03:00:49;;;;;;;8.65;3.53;;;6.90;99.90;;;;;;4991100;28;20030;-67
2022/02/04 03:03:17;;;;;;;7.65;2.75;;;6.90;99.90;;;;;;4982641;28;20022;-67
2022/02/04 03:05:42;;;;;;;5.68;3.17;;;6.90;99.90;;;;;;4985204;28;20030;-67
2022/02/04 03:08:09;;;;;;;6.43;3.35;;;6.90;99.90;;;;;;4989657;28;20034;-67
2022/02/04 03:10:35;;;;;;;6.03;2.60;;;6.90;99.90;;;;;;4982242;28;20022;-67
2022/02/04 03:13:00;;;;;;;11.57;4.18;;;6.90;99.90;;;;;;4988019;28;20389;-67
2022/02/04 03:15:26;;;;;;;7.82;3.55;;;6.90;99.90;;;;;;4984176;28;20026;-67
2022/02/04 03:18:02;;;;;;;9.57;4.40;;;6.90;99.90;;;;;;4983065;28;20026;-67
2022/02/04 03:20:29;;;;;;;7.35;2.88;;;6.90;99.90;;;;;;4990574;28;20022;-67
2022/02/04 03:22:56;;;;;;;7.93;3.67;;;6.90;99.90;;;;;;4999920;28;20054;-67
2022/02/04 03:25:24;;;;;;;10.20;4.63;;;7.00;99.90;;;;;;4985932;28;20025;-68
2022/02/04 03:27:53;;;;;;;11.43;3.72;;;6.90;99.90;;;;;;4988448;28;20065;-67
2022/02/04 03:30:29;;;;;;;5.13;2.60;;;6.90;99.90;;;;;;4996636;28;20069;-67
2022/02/04 03:33:00;;;;;;;5.55;2.75;;;7.00;99.90;;;;;;4987435;28;20438;-67
2022/02/04 03:35:26;;;;;;;7.57;2.80;;;6.90;99.90;;;;;;4984773;28;20022;-67
2022/02/04 03:37:54;;;;;;;2.75;1.75;;;6.90;99.90;;;;;;4984495;28;20074;-67
2022/02/04 03:40:20;;;;;;;7.88;3.67;;;6.90;99.90;;;;;;4981266;28;20034;-67
2022/02/04 03:42:47;;;;;;;9.13;2.53;;;6.90;99.90;;;;;;4987713;28;20018;-67
2022/02/04 03:45:14;;;;;;;7.00;3.20;;;6.90;99.90;;;;;;4984027;28;20534;-67
2022/02/04 03:47:40;;;;;;;6.25;3.10;;;6.90;99.90;;;;;;4987129;28;20030;-67
2022/02/04 03:50:06;;;;;;;7.20;2.22;;;7.00;99.90;;;;;;4985151;28;20077;-67
2022/02/04 03:52:32;;;;;;;6.07;2.47;;;7.00;99.90;;;;;;4983385;28;20027;-67
2022/02/04 03:54:58;;;;;;;5.03;2.53;;;7.00;99.90;;;;;;4980881;28;20054;-67
2022/02/04 03:57:23;;;;;;;9.43;2.50;;;7.00;99.90;;;;;;4997351;28;20035;-67
2022/02/04 03:59:49;;;;;;;8.95;3.33;;;7.00;99.90;;;;;;4993507;28;20088;-67
2022/02/04 04:02:15;;;;;;;8.15;3.05;;;7.00;99.90;;;;;;4983784;28;20051;-67
2022/02/04 04:04:41;;;;;;;4.63;2.17;;;7.00;99.90;;;;;;4985694;28;20033;-67
2022/02/04 04:07:07;;;;;;;4.80;2.38;;;7.00;99.90;;;;;;4985511;28;20518;-67
2022/02/04 04:09:36;;;;;;;5.00;2.72;;;7.00;99.90;;;;;;4981993;28;20049;-67
2022/02/04 04:12:01;;;;;;;4.68;2.70;;;7.00;99.90;;;;;;4983521;28;20030;-67
2022/02/04 04:14:27;;;;;;;1.85;1.30;;;7.10;99.90;;;;;;4984664;28;20470;-67
2022/02/04 04:16:53;;;;;;;5.05;2.53;;;7.10;99.90;;;;;;4981243;28;20069;-67
2022/02/04 04:19:18;;;;;;;6.38;2.85;;;7.00;99.90;;;;;;4980989;28;20467;-67
2022/02/04 04:21:44;;;;;;;7.30;2.42;;;7.10;99.90;;;;;;4985784;28;20033;-67
2022/02/04 04:24:09;;;;;;;6.22;2.53;;;7.00;99.90;;;;;;4986356;28;20121;-67
2022/02/04 04:26:36;;;;;;;8.40;3.17;;;7.10;99.90;;;;;;4984591;28;20078;-68
2022/02/04 04:29:02;;;;;;;3.83;1.92;;;7.00;99.90;;;;;;4984820;28;20517;-68
2022/02/04 04:31:28;;;;;;;3.40;2.00;;;7.00;99.90;;;;;;4983227;28;20061;-67
2022/02/04 04:33:53;;;;;;;7.18;3.13;;;7.00;99.90;;;;;;4986513;28;20034;-67
2022/02/04 04:36:20;;;;;;;4.32;1.98;;;7.00;99.90;;;;;;4980531;28;20038;-67
2022/02/04 04:38:52;;;;;;;5.40;2.55;;;7.00;99.90;;;;;;4981953;28;20463;-67
2022/02/04 05:30:21;;;;;;;3.50;1.67;;;7.00;99.90;;;;;;4983126;28;21508;-67
2022/02/04 05:32:48;;;;;;;12.02;2.35;;;7.10;99.90;;;;;;4982293;28;20031;-67
2022/02/04 05:35:14;;;;;;;4.00;1.90;;;7.10;99.90;;;;;;4984136;28;20034;-67
2022/02/04 05:37:45;;;;;;;7.13;2.55;;;7.10;99.90;;;;;;4984688;28;20026;-67
2022/02/04 05:40:14;;;;;;;8.23;3.08;;;7.10;99.90;;;;;;4981683;28;20489;-67
2022/02/04 05:42:47;;;;;;;4.50;1.95;;;7.10;99.90;;;;;;4989988;28;20056;-68
2022/02/04 05:45:22;;;;;;;4.90;1.95;;;7.10;99.90;;;;;;4984007;28;20090;-68
2022/02/04 05:47:51;;;;;;;4.53;2.22;;;7.10;99.90;;;;;;4987093;28;20560;-68
2022/02/04 05:50:24;;;;;;;4.00;1.63;;;7.10;99.90;;;;;;4984912;28;20031;-68
2022/02/04 05:57:59;;;;;;;4.68;1.92;;;7.10;99.90;;;;;;4988303;28;20516;-68
2022/02/04 06:00:39;;;;;;;7.40;2.67;;;7.10;99.90;;;;;;4988847;28;20026;-68
2022/02/04 06:24:25;;;;;;;4.07;2.05;;;7.10;99.90;;;;;;4987674;28;20091;-68
2022/02/04 06:26:51;;;;;;;5.60;2.38;;;;;;;;;;4990138;28;20030;-68
2022/02/04 06:29:17;;;;;;;17.20;2.75;;;7.10;99.90;;;;;;4991418;28;20034;-65
2022/02/04 06:31:42;;;;;;;3.35;1.45;;;7.10;99.90;;;;;;4989624;28;20060;-68
2022/02/04 06:34:08;;;;;;;6.78;2.75;;;7.20;99.90;;;;;;5004635;28;20030;-68
2022/02/04 06:36:34;;;;;;;3.80;1.30;;;7.20;99.90;;;;;;5000080;28;20061;-67
2022/02/04 06:38:59;;;;;;;4.10;2.00;;;7.20;99.90;;;;;;4984291;28;20108;-65
2022/02/04 06:41:25;;;;;;;6.30;2.30;;;7.20;99.90;;;;;;4994257;28;20030;-65
2022/02/04 06:43:50;;;;;;;1.13;0.93;;;7.20;99.90;;;;;;4994507;28;20037;-68
2022/02/04 06:46:16;;;;;;;3.70;1.60;;;7.20;99.90;;;;;;4998094;28;20026;-68
2022/02/04 06:48:41;;;;;;;3.08;1.65;;;7.20;99.90;;;;;;4989971;28;20018;-68
2022/02/04 06:51:07;;;;;;;2.75;1.63;;;7.20;99.90;;;;;;4989562;28;20365;-68
2022/02/04 06:53:32;;;;;;;9.18;1.55;;;7.20;99.90;;;;;;4988604;28;20030;-68
2022/02/04 06:55:58;;;;;;;4.43;1.70;;;7.20;99.90;;;;;;5000790;28;20026;-68
2022/02/04 06:58:24;;;;;;;4.25;1.92;;;7.20;99.90;;;;;;5011609;28;20497;-68
2022/02/04 07:00:49;;;;;;;3.38;1.77;;;7.30;99.90;;;;;;4994455;28;20042;-68
2022/02/04 07:03:15;;;;;;;4.38;1.88;;;7.20;99.90;;;;;;4987623;28;20022;-68
2022/02/04 07:05:54;;;;;;;3.42;1.50;;;7.30;99.90;;;;;;4986368;28;20117;-68
2022/02/04 07:08:26;;;;;;;3.85;1.92;;;7.20;99.90;;;;;;4987408;28;20504;-68
2022/02/04 07:16:29;;;;;;;10.15;2.45;;;7.30;99.90;;;;;;4995155;28;20034;-65
2022/02/04 07:21:39;;;;;;;3.35;1.50;;;7.30;99.90;;;;;;4986169;28;20037;-66
2022/02/04 07:24:05;;;;;;;1.15;1.00;;;7.30;99.90;;;;;;4999939;28;20531;-66
2022/02/04 07:26:32;;;;;;;3.85;1.83;;;7.30;99.90;;;;;;4993625;28;20054;-66
2022/02/04 07:28:57;;;;;;;3.10;1.45;;;7.40;99.90;;;;;;5000301;28;20026;-66
2022/02/04 07:31:29;;;;;;;2.78;1.58;;;7.40;99.90;;;;;;4988234;28;20019;-66
2022/02/04 07:34:10;;;;;;;3.97;1.65;;;7.40;99.90;;;;;;4986563;28;20026;-66
2022/02/04 07:42:01;;;;;;;3.15;1.55;;;7.50;99.90;;;;;;4987072;28;20026;-66
2022/02/04 07:44:27;;;;;;;3.78;1.30;;;7.50;99.90;;;;;;4989702;28;20376;-66
2022/02/04 07:46:52;;;;;;;3.85;2.10;;;7.50;99.90;;;;;;4987310;28;20080;-66
2022/02/04 07:49:18;;;;;;;4.32;1.83;;;7.60;99.90;;;;;;4988041;28;20022;-66
2022/02/04 07:51:44;;;;;;;4.75;1.73;;;7.60;99.90;;;;;;4988161;28;20037;-66
2022/02/04 07:54:10;;;;;;;3.42;1.52;;;7.60;99.90;;;;;;4986439;28;20041;-66
2022/02/04 07:56:36;;;;;;;7.05;2.30;;;7.60;99.90;;;;;;4991019;28;20018;-66
2022/02/04 07:59:09;;;;;;;2.92;1.42;;;7.60;99.90;;;;;;4991850;28;20695;-68
2022/02/04 08:01:35;;;;;;;4.55;1.83;;;7.60;99.90;;;;;;4992628;28;20018;-66
2022/02/04 08:04:14;;;;;;;1.70;1.02;;;7.60;99.90;;;;;;4992168;28;20022;-66
2022/02/04 08:06:44;;;;;;;6.53;2.08;;;7.60;99.90;;;;;;4989131;28;20178;-66
2022/02/04 08:17:37;;;;;;;2.95;1.35;;;7.80;99.90;;;;;;4984858;28;20072;-66
2022/02/04 08:51:44;;;;;;;2.78;1.27;;;8.20;99.90;;;;;;4982047;28;20391;-66
2022/02/04 08:54:12;;;;;;;3.97;1.50;;;8.30;99.90;;;;;;4992457;28;20069;-66
2022/02/04 08:59:27;;;;;;;1.05;0.90;;;8.40;99.90;;;;;;4985266;28;20034;-66
2022/02/04 09:04:49;;;;;;;2.47;1.27;;;8.50;99.90;;;;;;4987846;28;20038;-66
2022/02/04 09:07:18;;;;;;;1.65;0.88;;;8.50;99.90;;;;;;4981998;28;20097;-66
2022/02/04 09:09:50;;;;;;;2.92;1.10;;;8.50;99.90;;;;;;4984600;28;20030;-67
2022/02/04 09:20:35;;;;;;;2.90;1.25;;;8.80;99.90;;;;;;4985591;28;20038;-63
2022/02/04 09:23:00;;;;;;;3.78;1.25;;;8.70;99.90;;;;;;4987908;28;20475;-63
2022/02/04 09:25:27;;;;;;;3.47;1.30;;;8.80;99.90;;;;;;4990014;28;20019;-63
2022/02/04 09:27:53;;;;;;;3.42;1.38;;;8.70;99.90;;;;;;4988100;28;20026;-63
2022/02/04 09:30:20;;;;;;;4.25;1.55;;;8.80;99.90;;;;;;4993063;28;20065;-63
2022/02/04 09:32:46;;;;;;;5.55;1.83;;;8.90;99.90;;;;;;4991111;28;20084;-63
2022/02/04 09:35:14;;;;;;;3.95;1.60;;;8.80;99.90;;;;;;4996564;28;20065;-63
2022/02/04 09:37:43;;;;;;;3.15;1.23;;;8.80;99.90;;;;;;4990866;28;20087;-63
2022/02/04 09:40:11;;;;;;;2.00;1.27;;;8.80;99.90;;;;;;4992109;28;20041;-63
2022/02/04 09:42:40;;;;;;;1.65;0.93;;;8.80;99.90;;;;;;4995100;28;20616;-63
2022/02/04 09:45:08;;;;;;;3.85;1.17;;;8.90;99.90;;;;;;4990038;28;20500;-63
2022/02/04 09:47:35;;;;;;;3.65;1.50;;;8.80;99.90;;;;;;4994713;28;20050;-63
2022/02/04 09:50:10;;;;;;;2.22;1.20;;;8.60;99.90;;;;;;4994361;28;20414;-63
2022/02/04 10:09:29;;;;;;;3.20;1.83;;;8.10;99.90;;;;;;4996921;28;20045;-66
2022/02/04 10:17:13;;;;;;;3.88;1.42;;;8.10;99.90;;;;;;4987692;28;20034;-66
2022/02/04 10:22:24;;;;;;;3.72;1.10;;;8.20;99.90;;;;;;4988167;28;20110;-66
2022/02/04 10:25:08;;;;;;;3.22;1.55;;;8.10;99.90;;;;;;4988708;28;20025;-66
2022/02/04 10:27:35;;;;;;;4.05;1.67;;;8.10;99.90;;;;;;4988617;28;20161;-66
2022/02/04 10:30:04;;;;;;;1.58;1.00;;;7.90;99.90;;;;;;4997883;28;20037;-66
2022/02/04 10:32:48;;;;;;;2.60;1.42;;;7.90;99.90;;;;;;4988964;28;20284;-66
2022/02/04 10:35:32;;;;;;;3.75;1.20;;;7.80;99.90;;;;;;4987121;28;20525;-66
2022/02/04 10:38:20;;;;;;;2.00;0.90;;;7.80;99.90;;;;;;4989273;28;20398;-66
2022/02/04 10:40:57;;;;;;;2.85;1.30;;;7.90;99.90;;;;;;4984642;28;20022;-66
2022/02/04 10:46:39;;;;;;;1.45;0.95;;;8.50;99.90;;;;;;4979351;28;20035;-66
2022/02/04 10:49:36;;;;;;;2.28;1.23;;;8.50;99.90;;;;;;4986330;28;20033;-66
2022/02/04 11:03:14;;;;;;;1.02;0.85;;;8.90;99.90;;;;;;4970226;28;20034;-66
2022/02/04 11:11:31;;;;;;;1.50;0.90;;;9.40;99.90;;;;;;4987659;28;20057;-66
2022/02/04 11:31:01;;;;;;;3.92;1.35;;;8.90;99.90;;;;;;4987072;28;20064;-66
2022/02/04 11:36:21;;;;;;;1.42;0.90;;;9.20;99.90;;;;;;4985744;28;20062;-66
2022/02/04 11:51:35;;;;;;;2.05;1.20;;;8.40;99.90;;;;;;4982438;28;20046;-65
2022/02/04 11:57:03;;;;;;;1.85;1.20;;;8.40;99.90;;;;;;4984442;28;20034;-65
2022/02/04 11:59:40;;;;;;;7.80;1.83;;;8.40;99.90;;;;;;4990035;28;20109;-66
2022/02/04 12:02:31;;;;;;;1.63;1.10;;;8.40;99.90;;;;;;4983124;28;20019;-65
2022/02/04 12:05:11;;;;;;;2.47;1.35;;;8.30;99.90;;;;;;4985202;28;20382;-65
2022/02/04 12:07:41;;;;;;;;;;;8.40;99.90;;;;;;4979678;28;20575;-66
2022/02/04 12:10:12;;;;;;;2.03;1.05;;;8.60;99.90;;;;;;4981508;28;19922;-66
2022/02/04 12:12:57;;;;;;;1.15;0.90;;;8.50;99.90;;;;;;4983713;28;20038;-66
2022/02/04 12:15:37;;;;;;;3.47;1.30;;;8.40;99.90;;;;;;4990456;28;20026;-66
2022/02/04 12:18:08;;;;;;;10.00;1.53;;;8.40;99.90;;;;;;4985927;28;20026;-66
2022/02/04 12:23:34;;;;;;;8.10;1.55;;;8.30;99.90;;;;;;4981120;28;20491;-66
2022/02/04 12:26:10;;;;;;;0.93;0.80;;;8.20;99.90;;;;;;4984859;28;20497;-67
2022/02/04 12:29:06;;;;;;;3.25;1.48;;;8.20;99.90;;;;;;4990276;28;20014;-66
2022/02/04 12:31:31;;;;;;;1.05;0.88;;;8.30;99.90;;;;;;4987134;28;20065;-66
2022/02/04 12:33:57;;;;;;;0.88;0.70;;;8.30;99.90;;;;;;4989796;28;20094;-66
2022/02/04 12:36:27;;;;;;;0.60;0.60;;;8.20;99.90;;;;;;4988529;28;20089;-66
2022/02/04 12:38:59;;;;;;;0.70;0.70;;;8.20;99.90;;;;;;4989648;28;20540;-66
2022/02/04 12:41:29;;;;;;;2.17;1.10;;;8.20;99.90;;;;;;4990231;28;20169;-66
2022/02/04 12:43:57;;;;;;;1.33;0.80;;;8.20;99.90;;;;;;4993019;28;20069;-66
2022/02/04 12:46:25;;;;;;;0.55;0.55;;;8.20;99.90;;;;;;4988904;28;20030;-66
2022/02/04 12:48:58;;;;;;;2.10;1.10;;;8.20;99.90;;;;;;4992942;28;20557;-66
2022/02/04 12:51:43;;;;;;;2.33;0.95;;;8.30;99.90;;;;;;4988265;28;20023;-66
2022/02/04 12:54:10;;;;;;;0.70;0.70;;;8.40;99.90;;;;;;4988195;28;20022;-66
2022/02/04 12:56:43;;;;;;;0.70;0.70;;;8.40;99.90;;;;;;4986772;28;20026;-67
2022/02/04 12:59:35;;;;;;;0.63;0.63;;;8.30;99.90;;;;;;4988132;28;20497;-66
2022/02/04 13:02:18;;;;;;;0.98;0.75;;;8.30;99.90;;;;;;4986201;28;20168;-66
2022/02/04 13:07:55;;;;;;;1.80;0.88;;;8.40;99.90;;;;;;4987783;28;20085;-66
2022/02/04 13:10:26;;;;;;;1.10;0.73;;;8.40;99.90;;;;;;4985769;28;20038;-66
2022/02/04 13:12:57;;;;;;;2.03;1.08;;;8.30;99.90;;;;;;4989308;28;20379;-66
2022/02/04 13:15:23;;;;;;;0.85;0.80;;;8.30;99.90;;;;;;4993962;28;20026;-66
2022/02/04 13:17:50;;;;;;;1.15;0.82;;;8.30;99.90;;;;;;4991877;28;20512;-66
2022/02/04 13:20:21;;;;;;;3.33;1.10;;;8.20;99.90;;;;;;4993010;28;20030;-66
2022/02/04 13:22:51;;;;;;;1.98;0.90;;;8.20;99.90;;;;;;4991752;28;20034;-66
2022/02/04 13:25:22;;;;;;;3.67;1.27;;;8.20;99.90;;;;;;4990970;28;20117;-66
2022/02/04 13:28:07;;;;;;;1.40;0.75;;;8.20;99.90;;;;;;4983945;28;20041;-67
2022/02/04 13:30:35;;;;;;;1.70;1.00;;;8.30;99.90;;;;;;4998920;28;20557;-67
2022/02/04 13:33:02;;;;;;;1.73;0.90;;;8.30;99.90;;;;;;4998094;28;20088;-67
2022/02/04 13:35:39;;;;;;;0.70;0.70;;;8.30;99.90;;;;;;4995571;28;20032;-67
2022/02/04 13:38:21;;;;;;;1.33;0.98;;;8.30;99.90;;;;;;4999942;28;20426;-67
2022/02/04 13:40:59;;;;;;;2.33;1.20;;;8.30;99.90;;;;;;4987467;28;20026;-67
2022/02/04 13:46:37;;;;;;;0.88;0.80;;;8.40;99.90;;;;;;4990605;28;20038;-67
2022/02/04 13:49:14;;;;;;;0.70;0.70;;;8.30;99.90;;;;;;4988434;28;20030;-67
2022/02/04 13:51:50;;;;;;;1.73;1.20;;;8.40;99.90;;;;;;5005351;28;20104;-67
2022/02/04 14:00:10;;;;;;;1.52;0.90;;;8.50;99.90;;;;;;4991592;28;20101;-67
2022/02/04 14:02:43;;;;;;;2.17;1.15;;;8.60;99.90;;;;;;4980905;28;20576;-67
2022/02/04 14:05:10;;;;;;;2.63;1.23;;;8.70;99.90;;;;;;4988876;28;20058;-68
2022/02/04 14:07:43;;;;;;;2.80;1.02;;;8.80;99.90;;;;;;4998493;28;20042;-67
2022/02/04 14:10:20;;;;;;;1.92;0.80;;;8.70;99.90;;;;;;4988473;28;20393;-67
2022/02/04 14:13:08;;;;;;;2.53;1.20;;;8.70;99.90;;;;;;4992471;28;20106;-67
2022/02/04 14:15:37;;;;;;;1.13;0.80;;;8.70;99.90;;;;;;5010055;28;20026;-67
2022/02/04 14:18:08;;;;;;;2.97;1.40;;;8.80;99.90;;;;;;4994787;28;20064;-67
2022/02/04 14:20:36;;;;;;;2.15;0.93;;;8.90;99.90;;;;;;4997312;28;20030;-67
2022/02/04 14:23:07;;;;;;;2.72;1.08;;;9.00;99.90;;;;;;5006643;28;20498;-67
2022/02/04 14:25:43;;;;;;;;;;;9.10;99.90;;;;;;4999174;28;20026;-68
2022/02/04 14:28:11;;;;;;;1.67;0.82;;;9.10;99.90;;;;;;5015640;28;20008;-67
2022/02/04 14:30:38;;;;;;;2.38;1.10;;;9.10;99.90;;;;;;4994376;28;20026;-67
2022/02/04 14:33:16;;;;;;;5.28;0.98;;;9.00;99.90;;;;;;4986029;28;20041;-67
2022/02/04 14:35:55;;;;;;;2.58;1.15;;;8.90;99.90;;;;;;4985130;28;20030;-67
2022/02/04 14:50:03;;;;;;;2.45;1.05;;;8.70;99.90;;;;;;4992246;28;20029;-67
2022/02/04 14:58:37;;;;;;;3.63;1.25;;;8.60;99.90;;;;;;4986582;28;20027;-67
2022/02/04 15:03:02;;;;;;;3.10;1.02;;;8.70;99.90;;;;;;4983726;28;20031;-66
2022/02/04 15:05:36;;;;;;;2.03;1.00;;;8.70;99.90;;;;;;4992926;28;20019;-66
2022/02/04 15:08:06;;;;;;;1.52;0.93;;;8.70;99.90;;;;;;4991157;28;20100;-66
2022/02/04 15:10:32;;;;;;;1.80;0.90;;;8.70;99.90;;;;;;5002372;28;20394;-66
2022/02/04 15:13:00;;;;;;;1.67;0.93;;;8.70;99.90;;;;;;4991377;28;20414;-66
2022/02/04 15:15:25;;;;;;;3.15;1.35;;;8.70;99.90;;;;;;4998453;28;20034;-66
2022/02/04 15:17:51;;;;;;;0.60;0.60;;;8.60;99.90;;;;;;4996285;28;20478;-66
2022/02/04 15:20:17;;;;;;;0.70;0.70;;;8.50;99.90;;;;;;5000960;28;20026;-66
2022/02/04 15:22:42;;;;;;;2.33;0.95;;;8.50;99.90;;;;;;4984822;28;20739;-66
2022/02/04 15:25:18;;;;;;;1.73;0.73;;;8.40;99.90;;;;;;4992363;28;20026;-66
2022/02/04 15:27:48;;;;;;;4.63;0.88;;;8.30;99.90;;;;;;4988876;28;20084;-66
2022/02/04 15:30:22;;;;;;;3.57;1.30;;;8.10;99.90;;;;;;4987744;28;20022;-66
2022/02/04 15:32:47;;;;;;;1.75;1.15;;;8.00;99.90;;;;;;4982405;28;20034;-66
2022/02/04 15:35:13;;;;;;;1.88;0.90;;;7.70;99.90;;;;;;4990121;28;20027;-66
2022/02/04 15:37:39;;;;;;;1.15;0.68;;;7.70;99.90;;;;;;4992599;28;20034;-66
2022/02/04 15:40:05;;;;;;;1.38;0.90;;;7.70;99.90;;;;;;4999804;28;20030;-66
2022/02/04 15:42:34;;;;;;;0.75;0.75;;;7.50;99.90;;;;;;4993273;28;20031;-66
2022/02/04 15:45:16;;;;;;;1.23;0.90;;;7.40;99.90;;;;;;4984033;28;20019;-65
2022/02/04 16:05:42;;;;;;;1.45;0.80;;;6.80;99.90;;;;;;4989477;28;20402;-65
2022/02/04 16:08:09;;;;;;;2.45;1.20;;;6.70;99.90;;;;;;4993465;28;20569;-65
2022/02/04 16:10:52;;;;;;;2.65;1.05;;;6.70;99.90;;;;;;4988368;28;20026;-65
2022/02/04 16:16:24;;;;;;;0.70;0.70;;;6.70;99.90;;;;;;4990385;28;20077;-65
2022/02/04 16:21:50;;;;;;;1.08;0.80;;;6.70;99.90;;;;;;4990716;28;20485;-65
2022/02/04 16:26:57;;;;;;;0.80;0.80;;;6.70;99.90;;;;;;4988235;28;20022;-65
2022/02/04 16:29:24;;;;;;;3.22;1.45;;;6.60;99.90;;;;;;4986746;28;20081;-65
2022/02/04 16:31:50;;;;;;;7.45;1.55;;;6.60;99.90;;;;;;4996749;28;20037;-65
2022/02/04 16:34:18;;;;;;;3.83;1.50;;;6.60;99.90;;;;;;5000240;28;20433;-65
2022/02/04 16:36:46;;;;;;;0.70;0.70;;;6.60;99.90;;;;;;4991322;28;20118;-65
2022/02/04 16:39:12;;;;;;;1.60;0.90;;;6.60;99.90;;;;;;5007706;28;20041;-65
2022/02/04 16:42:14;;;;;;;14.00;4.20;;;6.60;99.90;;;;;;5011592;28;20231;-65
2022/02/04 16:44:31;;;;;;;0.73;0.73;;;6.60;99.90;;;;;;4989973;28;20034;-65
2022/02/04 16:47:01;;;;;;;0.93;0.77;;;6.70;99.90;;;;;;4989579;28;20115;-65
2022/02/04 16:49:30;;;;;;;2.08;1.13;;;6.70;99.90;;;;;;4992447;28;20105;-65
2022/02/04 16:51:57;;;;;;;1.53;1.20;;;6.70;99.90;;;;;;4988415;28;20109;-65
2022/02/04 16:54:24;;;;;;;0.70;0.70;;;6.80;99.90;;;;;;4990275;28;20053;-65
2022/02/04 16:56:51;;;;;;;1.85;1.13;;;6.80;99.90;;;;;;4989736;28;20050;-64
2022/02/04 16:59:17;;;;;;;1.58;1.13;;;6.80;99.90;;;;;;4994253;28;21146;-65
2022/02/04 17:01:43;;;;;;;3.50;1.20;;;6.90;99.90;;;;;;4990453;28;20053;-65
2022/02/04 17:04:09;;;;;;;2.22;1.30;;;6.90;99.90;;;;;;4988560;28;20030;-65
2022/02/04 17:06:39;;;;;;;5.97;1.85;;;6.90;99.90;;;;;;4990578;28;20057;-65
2022/02/04 17:11:43;;;;;;;3.22;1.23;;;6.50;99.90;;;;;;4997576;28;20482;-65
2022/02/04 17:14:09;;;;;;;3.97;1.70;;;5.40;99.90;;;;;;4984304;28;20080;-65
2022/02/04 17:16:35;;;;;;;3.30;1.45;;;4.80;99.90;;;;;;4991654;28;20037;-65
2022/02/04 17:19:00;;;;;;;2.97;1.55;;;4.70;99.90;;;;;;4979056;28;20027;-65
2022/02/04 17:21:29;;;;;;;2.78;1.30;;;4.60;99.90;;;;;;4993863;28;20117;-65
2022/02/04 17:23:56;;;;;;;2.92;1.38;;;4.50;99.90;;;;;;4994037;28;20026;-65
2022/02/04 17:26:22;;;;;;;5.35;1.90;;;4.50;99.90;;;;;;4999763;28;20019;-65
2022/02/04 17:28:48;;;;;;;5.25;1.98;;;4.40;99.90;;;;;;4993067;28;20021;-65
2022/02/04 17:31:14;;;;;;;4.32;1.80;;;4.40;99.90;;;;;;4996133;28;20113;-66
2022/02/04 17:33:40;;;;;;;2.88;1.42;;;4.40;99.90;;;;;;4997617;28;20089;-65
2022/02/04 17:36:06;;;;;;;3.60;1.30;;;4.30;99.90;;;;;;4995628;28;20323;-65
2022/02/04 17:38:31;;;;;;;5.53;2.38;;;4.30;99.90;;;;;;4989330;28;20038;-64
2022/02/04 17:40:58;;;;;;;4.90;2.33;;;4.30;99.90;;;;;;4989252;28;20036;-65
2022/02/04 17:43:25;;;;;;;3.60;1.63;;;4.30;99.90;;;;;;4994751;28;20022;-65
2022/02/04 17:45:51;;;;;;;2.08;1.23;;;4.20;99.90;;;;;;5002052;28;20026;-65
2022/02/04 17:48:27;;;;;;;3.40;1.63;;;4.20;99.90;;;;;;5002481;28;20108;-65
2022/02/04 17:51:14;;;;;;;1.67;1.10;;;4.10;99.90;;;;;;4991691;28;20057;-65
2022/02/04 17:53:52;;;;;;;2.03;1.30;;;4.10;99.90;;;;;;4992510;28;20031;-65
2022/02/04 17:56:32;;;;;;;2.63;1.45;;;4.00;99.90;;;;;;4990820;28;20022;-65
2022/02/04 18:02:01;;;;;;;4.93;1.77;;;4.00;99.90;;;;;;4999014;28;20049;-65
2022/02/04 18:07:21;;;;;;;4.18;1.85;;;4.00;99.90;;;;;;4993134;28;20141;-65
2022/02/04 18:09:47;;;;;;;8.65;3.55;;;3.90;99.90;;;;;;4993021;28;20402;-65
2022/02/04 18:12:14;;;;;;;2.85;1.48;;;4.00;99.90;;;;;;5000001;28;20030;-65
2022/02/04 18:14:43;;;;;;;3.67;1.98;;;4.00;99.90;;;;;;5002176;28;20030;-65
2022/02/04 18:17:09;;;;;;;4.50;2.13;;;4.00;99.90;;;;;;4997810;28;20032;-65
2022/02/04 18:19:35;;;;;;;4.07;1.67;;;4.00;99.90;;;;;;4995534;28;20517;-65
2022/02/04 18:22:01;;;;;;;3.38;2.05;;;4.00;99.90;;;;;;5001895;28;20723;-65
2022/02/04 18:24:28;;;;;;;6.45;3.17;;;4.00;99.90;;;;;;4996250;28;20022;-65
2022/02/04 18:26:53;;;;;;;4.07;2.20;;;3.90;99.90;;;;;;4994202;28;20378;-65
2022/02/04 18:29:19;;;;;;;6.30;2.70;;;3.90;99.90;;;;;;4998909;28;20021;-65
2022/02/04 18:31:46;;;;;;;1.80;1.30;;;4.00;99.90;;;;;;4993095;28;20080;-65
2022/02/04 18:34:13;;;;;;;1.38;1.27;;;4.00;99.90;;;;;;4989317;28;20299;-65
2022/02/04 18:36:40;;;;;;;3.85;2.03;;;4.00;99.90;;;;;;4993214;28;20033;-66
2022/02/04 18:39:15;;;;;;;5.72;2.78;;;4.00;99.90;;;;;;4993238;28;20023;-65
2022/02/04 18:44:28;;;;;;;1.30;1.10;;;4.00;99.90;;;;;;4995779;28;20365;-65
2022/02/04 18:46:59;;;;;;;4.55;1.83;;;4.00;99.90;;;;;;4992614;28;20050;-66
2022/02/04 18:49:30;;;;;;;3.47;1.83;;;3.90;99.90;;;;;;4996911;28;20035;-65
2022/02/04 18:57:16;;;;;;;2.65;1.52;;;3.80;99.90;;;;;;4994580;28;20034;-65
2022/02/04 19:02:20;;;;;;;4.85;1.80;;;3.80;99.90;;;;;;4997906;28;20026;-65
2022/02/04 19:04:54;;;;;;;8.88;3.30;;;3.80;99.90;;;;;;4991567;28;20018;-65
2022/02/04 19:07:28;;;;;;;4.45;1.98;;;3.80;99.90;;;;;;4999148;28;20450;-65
2022/02/04 19:09:54;;;;;;;3.75;1.65;;;3.80;99.90;;;;;;4994008;28;20550;-65
2022/02/04 19:12:28;;;;;;;7.63;2.72;;;3.90;99.90;;;;;;4998266;28;20030;-65
2022/02/04 19:15:08;;;;;;;3.33;1.80;;;3.90;99.90;;;;;;4994952;28;20031;-65
2022/02/04 19:17:42;;;;;;;1.83;1.20;;;3.90;99.90;;;;;;5003322;28;20056;-65
2022/02/04 19:20:21;;;;;;;5.28;2.22;;;3.90;99.90;;;;;;4997641;28;20030;-65
2022/02/04 19:22:54;;;;;;;2.60;1.63;;;4.00;99.90;;;;;;4990783;28;20050;-65
2022/02/04 19:25:23;;;;;;;1.48;1.17;;;3.90;99.90;;;;;;4993475;28;20110;-65
2022/02/04 19:27:49;;;;;;;7.10;2.63;;;3.90;99.90;;;;;;4986456;28;20038;-65
2022/02/04 19:30:15;;;;;;;6.32;2.63;;;3.90;99.90;;;;;;4997676;28;20032;-65
2022/02/04 19:32:41;;;;;;;6.78;3.47;;;3.90;99.90;;;;;;4984401;28;20537;-65
2022/02/04 19:35:08;;;;;;;2.95;1.38;;;3.90;99.90;;;;;;4991826;28;20062;-65
2022/02/04 19:37:33;;;;;;;7.93;2.33;;;3.90;99.90;;;;;;4984113;28;20026;-65
2022/02/04 19:39:59;;;;;;;1.98;1.23;;;3.90;99.90;;;;;;4987850;28;20104;-66
2022/02/04 19:42:29;;;;;;;6.07;1.55;;;4.00;99.90;;;;;;5004650;28;20076;-66
2022/02/04 19:45:00;;;;;;;7.85;2.85;;;3.90;99.90;;;;;;4991151;28;20032;-65
2022/02/04 19:47:33;;;;;;;7.88;3.17;;;3.90;99.90;;;;;;4985667;28;20026;-65
2022/02/04 19:52:59;;;;;;;10.82;3.33;;;3.90;99.90;;;;;;4993502;28;20030;-65
2022/02/04 20:16:16;;;;;;;4.40;1.95;;;3.80;99.90;;;;;;4995801;28;20552;-66
2022/02/04 20:25:07;;;;;;;6.68;2.25;;;3.90;99.90;;;;;;4992350;28;20088;-66
2022/02/04 20:27:41;;;;;;;8.02;2.55;;;3.90;99.90;;;;;;4987322;28;20026;-66